Latest Weather Observations for Shepparton

IDV60801

Issued at 3:02 pm EST Thursday 2 July 2015 (issued every 30 minutes, with the page automatically refreshed every 10 minutes)

About weather observations | Map of weather stations | Latest weather observations for VIC | Other Formats
Station Details ID: 081125 Name: SHEPPARTON AIRPORT Lat: -36.43 Lon: 145.39 Height: 113.9 m
Data from the previous 72 hours. | See also: Recent months at Shepparton
Date/Time
EST
Temp
°C
App
Temp
°C
Dew
Point
Rel
Hum
%
Delta-T
°C
Wind Press
QNH
hPa
Press
MSL
hPa
Rain
since 9 am
mm
Dir
 
Spd
km/h
Gust
km/h
Spd
kts
Gust
kts
02/03:00pm 11.6 3.0 0.1 45 4.7 SSW 35 50 19 27 1024.0 1024.3 0.0
02/02:30pm 11.9 3.3 0.1 44 4.8 SSW 35 50 19 27 1023.6 1023.9 0.0
02/02:00pm 12.0 3.9 -0.5 42 5.1 SSW 32 43 17 23 1023.3 1023.5 0.0
02/01:30pm 12.5 4.0 0.6 44 5.0 SSW 35 48 19 26 1022.8 1023.0 0.0
02/01:00pm 11.5 3.5 1.7 51 4.2 S 33 52 18 28 1022.8 1023.0 0.0
02/12:56pm 11.7 4.0 2.2 52 4.1 S 32 52 17 28 1022.8 1023.0 0.0
02/12:30pm 11.4 4.9 4.6 63 3.1 SSW 28 39 15 21 1022.8 1023.0 0.0
02/12:08pm 10.2 3.4 6.9 80 1.6 S 32 50 17 27 1023.1 1023.3 0.0
02/12:00pm 9.1 0.7 5.7 79 1.5 SSW 39 50 21 27 1022.9 1023.1 0.0
02/11:57am 10.1 1.7 5.5 73 2.1 SW 39 48 21 26 1022.8 1023.0 0.0
02/11:30am 12.2 4.5 3.4 55 3.9 SW 33 52 18 28 1022.6 1022.8 0.0
02/11:25am 12.2 4.8 3.9 57 3.7 SW 32 52 17 28 1022.5 1022.7 0.0
02/11:00am 11.9 5.7 6.2 68 2.7 WSW 28 37 15 20 1022.6 1022.8 0.0
02/10:30am 11.3 6.1 7.2 76 2.0 WSW 24 33 13 18 1022.7 1022.9 0.0
02/10:00am 10.4 5.6 7.5 82 1.4 W 22 30 12 16 1022.8 1023.0 0.0
02/09:30am 9.1 3.4 6.7 85 1.1 W 26 33 14 18 1022.7 1022.9 0.0
02/09:00am 9.0 3.6 6.4 84 1.2 W 24 33 13 18 1022.4 1022.6 0.0
02/08:30am 8.1 2.6 6.1 87 0.9 W 24 35 13 19 1022.3 1022.5 0.0
02/08:00am 7.6 2.7 5.2 85 1.1 WNW 20 28 11 15 1021.8 1022.0 0.0
02/07:30am 7.7 3.0 5.3 85 1.1 WNW 19 26 10 14 1021.8 1022.0 0.0
02/07:00am 7.6 2.8 5.6 87 0.9 WNW 20 28 11 15 1021.5 1021.7 0.0
02/06:30am 8.0 3.0 4.8 80 1.4 WNW 20 26 11 14 1021.1 1021.3 0.0
02/06:00am 8.4 3.9 4.2 75 1.8 WNW 17 24 9 13 1021.1 1021.3 0.0
02/05:30am 7.9 3.8 4.1 77 1.7 NW 15 20 8 11 1021.4 1021.6 0.0
02/05:00am 7.7 3.9 3.7 76 1.7 NW 13 17 7 9 1021.4 1021.6 0.0
02/04:30am 8.1 3.5 3.8 74 1.9 WNW 17 22 9 12 1021.9 1022.1 0.0
02/04:00am 8.3 4.1 3.6 72 2.0 NW 15 19 8 10 1021.9 1022.1 0.0
02/03:30am 8.6 4.8 4.0 73 2.0 NW 13 17 7 9 1022.5 1022.7 0.0
02/03:00am 8.4 4.6 4.0 74 1.9 NW 13 19 7 10 1022.6 1022.8 0.0
02/02:30am 8.5 4.7 4.1 74 1.9 NW 13 19 7 10 1023.0 1023.2 0.0
02/02:00am 8.7 4.9 3.9 72 2.1 NW 13 22 7 12 1023.1 1023.3 0.0
02/01:30am 8.7 4.1 3.7 71 2.2 NW 17 26 9 14 1023.1 1023.3 0.0
02/01:00am 8.6 5.0 3.2 69 2.3 NW 11 17 6 9 1023.8 1024.1 0.0
02/12:30am 8.5 4.5 3.1 69 2.3 NW 13 19 7 10 1024.2 1024.5 0.0
02/12:00am 8.6 4.6 2.6 66 2.5 NW 13 20 7 11 1024.7 1025.0 0.0
 
Date/Time
EST
Temp
°C
App
Temp
°C
Dew
Point
Rel
Hum
%
Delta-T
°C
Wind Press
QNH
hPa
Press
MSL
hPa
Rain
since 9 am
mm
Dir
 
Spd
km/h
Gust
km/h
Spd
kts
Gust
kts
01/11:30pm 8.6 4.6 2.6 66 2.5 NW 13 19 7 10 1024.8 1025.1 0.0
01/11:00pm 8.8 4.3 2.2 63 2.8 NW 15 20 8 11 1024.9 1025.2 0.0
01/10:30pm 9.1 4.6 2.0 61 3.0 NW 15 20 8 11 1024.7 1025.0 0.0
01/10:00pm 8.8 4.3 2.4 64 2.7 NNW 15 20 8 11 1024.8 1025.1 0.0
01/09:30pm 8.0 4.4 2.9 70 2.2 NNW 11 13 6 7 1025.3 1025.6 0.0
01/09:00pm 7.5 4.3 3.0 73 1.9 NW 9 13 5 7 1025.4 1025.7 0.0
01/08:30pm 6.3 3.0 2.6 77 1.5 NNW 9 11 5 6 1025.3 1025.6 0.0
01/08:00pm 6.3 3.4 2.4 76 1.6 NW 7 9 4 5 1025.5 1025.8 0.0
01/07:30pm 6.7 3.4 2.6 75 1.7 NNW 9 11 5 6 1025.5 1025.8 0.0
01/07:00pm 6.9 3.9 2.0 71 2.0 NNW 7 9 4 5 1025.2 1025.5 0.0
01/06:30pm 8.4 5.4 2.0 64 2.7 N 7 11 4 6 1024.9 1025.2 0.0
01/06:00pm 9.8 6.9 2.4 60 3.1 NW 7 11 4 6 1025.1 1025.4 0.0
01/05:30pm 10.2 7.0 2.8 60 3.2 NW 9 11 5 6 1025.3 1025.6 0.0
01/05:00pm 10.6 7.8 2.9 59 3.3 WNW 7 15 4 8 1025.5 1025.8 0.0
01/04:30pm 10.9 8.1 3.0 58 3.5 NW 7 11 4 6 1025.5 1025.8 0.0
01/04:00pm 11.1 8.1 4.3 63 3.0 NW 9 11 5 6 1025.6 1025.9 0.0
01/03:30pm 11.1 8.1 4.1 62 3.1 WNW 9 13 5 7 1025.8 1026.1 0.0
01/03:00pm 12.1 8.5 5.0 62 3.3 W 13 20 7 11 1026.0 1026.3 0.0
01/02:30pm 11.0 7.7 4.7 65 2.9 W 11 17 6 9 1026.0 1026.3 0.0
01/02:00pm 10.5 7.8 5.7 72 2.2 W 9 15 5 8 1026.3 1026.6 0.0
01/01:30pm 10.3 9.4 5.9 74 2.0 CALM 0 6 0 3 1026.5 1026.8 0.0
01/01:00pm 8.8 7.4 5.7 81 1.4 WNW 2 7 1 4 1027.0 1027.3 0.0
01/12:30pm 6.8 6.0 6.5 98 0.1 CALM 0 6 0 3 1027.7 1028.0 0.0
01/12:00pm 5.4 3.6 5.3 99 0.0 NNE 4 7 2 4 1028.1 1028.4 0.0
01/11:30am 4.3 1.3 4.2 99 0.0 N 9 13 5 7 1029.0 1029.2 0.0
01/11:23am 3.9 1.8 3.8 99 0.0 NNE 4 11 2 6 1029.2 1029.4 0.0
01/11:00am 3.5 2.1 3.4 99 0.0 CALM 0 0 0 0 1029.8 1030.0 0.0
01/10:48am 2.9 1.4 2.8 99 0.0 CALM 0 0 0 0 1030.0 1030.2 0.0
01/10:30am 2.6 1.0 2.5 99 0.0 CALM 0 6 0 3 1030.2 1030.4 0.0
01/10:21am 2.1 -0.7 2.0 99 0.0 E 6 9 3 5 1030.1 1030.3 0.0
01/10:00am 1.6 -0.2 1.5 99 0.0 CALM 0 0 0 0 1030.0 1030.2 0.0
01/09:30am 0.7 -1.2 0.6 99 0.0 CALM 0 0 0 0 1029.8 1030.0 0.0
01/09:00am -0.2 -2.2 -0.3 99 0.0 CALM 0 0 0 0 1029.7 1029.9 0.2
01/08:53am -0.3 -2.3 -0.4 99 0.0 CALM 0 0 0 0 1029.6 1029.8 0.0
01/08:52am -0.3 -2.3 -0.4 99 0.0 CALM 0 0 0 0 1029.6 1029.8 0.0
01/08:46am -0.3 -2.3 -0.4 99 0.0 CALM 0 0 0 0 1029.5 1029.7 0.0
01/08:45am -0.3 -2.3 -0.4 99 0.0 CALM 0 0 0 0 1029.5 1029.7 0.0
01/08:30am -0.7 -2.8 -0.8 99 0.0 CALM 0 0 0 0 1029.3 1029.5 0.0
01/08:24am -0.8 -3.3 -0.9 99 0.0 ENE 2 7 1 4 1029.4 1029.6 0.0
01/08:23am -0.8 -3.3 -0.9 99 0.0 ENE 2 7 1 4 1029.4 1029.6 0.0
01/08:11am -0.9 -3.0 -1.0 99 0.0 CALM 0 0 0 0 1029.3 1029.5 0.0
01/08:10am -0.9 -3.0 -1.0 99 0.0 CALM 0 0 0 0 1029.3 1029.5 0.0
01/08:00am -1.0 -3.1 -1.1 99 0.0 CALM 0 0 0 0 1029.2 1029.4 0.0
01/07:54am -1.1 -3.3 -1.2 99 0.0 CALM 0 0 0 0 1029.2 1029.4 0.0
01/07:53am -1.1 -3.3 -1.2 99 0.0 CALM 0 0 0 0 1029.2 1029.4 0.0
01/07:51am -1.2 -3.4 -1.3 99 0.0 CALM 0 0 0 0 1029.2 1029.4 0.0
01/07:50am -1.2 -3.4 -1.3 99 0.0 CALM 0 0 0 0 1029.2 1029.4 0.0
01/07:49am -1.2 -3.4 -1.3 99 0.0 CALM 0 0 0 0 1029.2 1029.4 0.0
01/07:48am -1.2 -3.4 -1.3 99 0.0 CALM 0 0 0 0 1029.1 1029.3 0.0
01/07:47am -1.2 -3.4 -1.3 99 0.0 CALM 0 0 0 0 1029.1 1029.3 0.0
01/07:46am -1.3 -3.5 -1.4 99 0.0 CALM 0 0 0 0 1029.1 1029.3 0.0
01/07:30am -1.3 -3.5 -1.4 99 0.0 CALM 0 0 0 0 1028.9 1029.1 0.0
01/07:24am -1.4 -3.6 -1.5 99 0.0 CALM 0 0 0 0 1028.8 1029.0 0.0
01/07:23am -1.5 -3.7 -1.6 99 0.0 CALM 0 0 0 0 1028.8 1029.0 0.0
01/07:21am -1.5 -3.7 -1.6 99 0.0 CALM 0 0 0 0 1028.8 1029.0 0.0
01/07:20am -1.4 -3.6 -1.5 99 0.0 CALM 0 0 0 0 1028.8 1029.0 0.0
01/07:16am -1.5 -3.7 -1.6 99 0.0 CALM 0 0 0 0 1028.7 1028.9 0.0
01/07:15am -1.5 -3.7 -1.6 99 0.0 CALM 0 0 0 0 1028.7 1028.9 0.0
01/07:09am -1.5 -3.7 -1.6 99 0.0 CALM 0 0 0 0 1028.7 1028.9 0.0
01/07:06am -1.5 -3.7 -1.6 99 0.0 CALM 0 0 0 0 1028.7 1028.9 0.0
01/07:00am -1.5 -3.7 -1.6 99 0.0 CALM 0 0 0 0 1028.7 1028.9 0.0
01/06:58am -1.5 -3.7 -1.6 99 0.0 CALM 0 0 0 0 1028.7 1028.9 0.0
01/06:43am -1.5 -3.7 -1.6 99 0.0 CALM 0 2 0 1 1028.6 1028.8 0.0
01/06:34am -1.5 -3.7 -1.6 99 0.0 CALM 0 0 0 0 1028.5 1028.7 0.0
01/06:33am -1.5 -3.7 -1.6 99 0.0 CALM 0 0 0 0 1028.5 1028.7 0.0
01/06:30am -1.4 -3.6 -1.5 99 0.0 CALM 0 0 0 0 1028.5 1028.7 0.0
01/06:15am -1.6 -3.8 -1.7 99 0.0 CALM 0 0 0 0 1028.5 1028.7 0.0
01/06:08am -1.3 -3.5 -1.4 99 0.0 CALM 0 0 0 0 1028.5 1028.7 0.0
01/06:07am -1.3 -3.5 -1.4 99 0.0 CALM 0 0 0 0 1028.3 1028.6 0.0
01/06:00am -1.4 -3.6 -1.5 99 0.0 CALM 0 0 0 0 1028.2 1028.5 0.0
01/05:30am -1.1 -3.3 -1.2 99 0.0 CALM 0 0 0 0 1028.0 1028.3 0.0
01/05:12am -1.1 -3.3 -1.2 99 0.0 CALM 0 0 0 0 1028.0 1028.3 0.0
01/05:11am -1.1 -3.3 -1.2 99 0.0 CALM 0 0 0 0 1028.0 1028.3 0.0
01/05:00am -0.9 -3.0 -1.0 99 0.0 CALM 0 0 0 0 1027.9 1028.2 0.0
01/04:39am -0.8 -2.9 -0.9 99 0.0 CALM 0 0 0 0 1027.9 1028.2 0.0
01/04:38am -0.8 -2.9 -0.9 99 0.0 CALM 0 0 0 0 1027.8 1028.1 0.0
01/04:30am -0.6 -2.7 -0.7 99 0.0 CALM 0 0 0 0 1027.8 1028.1 0.0
01/04:25am -0.6 -2.7 -0.7 99 0.0 CALM 0 0 0 0 1027.9 1028.2 0.0
01/04:24am -0.6 -2.7 -0.7 99 0.0 CALM 0 0 0 0 1027.9 1028.2 0.0
01/04:16am -0.6 -2.7 -0.7 99 0.0 CALM 0 0 0 0 1027.9 1028.2 0.0
01/04:14am -0.6 -2.7 -0.7 99 0.0 CALM 0 0 0 0 1027.9 1028.2 0.0
01/04:02am -0.6 -2.7 -0.7 99 0.0 CALM 0 0 0 0 1027.9 1028.2 0.0
01/04:01am -0.6 -2.7 -0.7 99 0.0 CALM 0 0 0 0 1027.9 1028.2 0.0
01/04:00am -0.6 -2.7 -0.7 99 0.0 CALM 0 0 0 0 1027.9 1028.2 0.0
01/03:30am -0.3 -2.3 -0.4 99 0.0 CALM 0 0 0 0 1028.1 1028.4 0.0
01/03:00am -0.5 -2.6 -0.6 99 0.0 CALM 0 0 0 0 1028.5 1028.7 0.0
01/02:41am -0.1 -3.3 -0.2 99 0.0 SSE 6 9 3 5 1028.5 1028.7 0.0
01/02:30am 0.0 -2.0 -0.1 99 0.0 CALM 0 0 0 0 1028.7 1028.9 0.0
01/02:12am -0.1 -2.1 -0.2 99 0.0 CALM 0 0 0 0 1028.7 1028.9 0.0
01/02:01am -0.1 -2.1 -0.2 99 0.0 CALM 0 0 0 0 1028.8 1029.0 0.0
01/02:00am -0.1 -2.1 -0.2 99 0.0 CALM 0 0 0 0 1028.8 1029.0 0.0
01/01:30am -0.2 -2.2 -0.3 99 0.0 CALM 0 0 0 0 1028.8 1029.0 0.0
01/01:00am 0.4 -1.5 0.3 99 0.0 CALM 0 0 0 0 1028.9 1029.1 0.0
01/12:30am 0.2 -1.8 0.1 99 0.0 CALM 0 0 0 0 1029.0 1029.2 0.0
01/12:01am 0.6 -1.3 0.5 99 0.0 CALM 0 0 0 0 1029.3 1029.5 0.0
01/12:00am 0.6 -1.3 0.5 99 0.0 CALM 0 0 0 0 1029.3 1029.5 0.0
 
Date/Time
EST
Temp
°C
App
Temp
°C
Dew
Point
Rel
Hum
%
Delta-T
°C
Wind Press
QNH
hPa
Press
MSL
hPa
Rain
since 9 am
mm
Dir
 
Spd
km/h
Gust
km/h
Spd
kts
Gust
kts
30/11:52pm 0.8 -1.1 0.7 99 0.0 CALM 0 0 0 0 1029.3 1029.5 0.0
30/11:51pm 0.8 -1.1 0.7 99 0.0 CALM 0 0 0 0 1029.3 1029.5 0.0
30/11:30pm 0.9 -1.0 0.8 99 0.0 CALM 0 0 0 0 1029.1 1029.3 0.0
30/11:27pm 1.0 -0.8 0.9 99 0.0 CALM 0 0 0 0 1029.1 1029.3 0.0
30/11:26pm 1.1 -0.7 1.0 99 0.0 CALM 0 0 0 0 1029.1 1029.3 0.0
30/11:25pm 1.1 -0.7 1.0 99 0.0 CALM 0 0 0 0 1029.1 1029.3 0.0
30/11:24pm 1.1 -0.7 1.0 99 0.0 CALM 0 0 0 0 1029.1 1029.3 0.0
30/11:19pm 1.2 -0.6 1.1 99 0.0 CALM 0 0 0 0 1029.1 1029.3 0.0
30/11:00pm 1.5 -0.3 1.4 99 0.0 CALM 0 0 0 0 1029.2 1029.4 0.0
30/10:59pm 1.4 -0.4 1.3 99 0.0 CALM 0 0 0 0 1029.2 1029.4 0.0
30/10:57pm 1.4 -0.4 1.3 99 0.0 CALM 0 0 0 0 1029.2 1029.4 0.0
30/10:54pm 2.5 0.9 2.4 99 0.0 CALM 0 0 0 0 1029.3 1029.5 0.0
30/10:51pm 2.3 0.7 2.2 99 0.0 CALM 0 0 0 0 1029.3 1029.5 0.0
30/10:46pm 2.2 0.5 2.1 99 0.0 CALM 0 0 0 0 1029.3 1029.5 0.0
30/10:44pm 2.1 0.4 2.0 99 0.0 CALM 0 0 0 0 1029.3 1029.5 0.0
30/10:30pm 2.1 -0.3 2.0 99 0.0 E 4 7 2 4 1029.3 1029.5 0.0
30/10:00pm 1.5 -1.6 1.4 99 0.0 SE 7 15 4 8 1029.3 1029.5 0.0
30/09:54pm 2.1 -0.3 2.0 99 0.0 WNW 4 7 2 4 1029.3 1029.5 0.0
30/09:36pm 3.5 2.1 3.4 99 0.0 CALM 0 7 0 4 1029.1 1029.3 0.0
30/09:30pm 3.3 1.8 3.2 99 0.0 CALM 0 0 0 0 1029.1 1029.3 0.0
30/09:00pm 3.0 1.1 2.7 98 0.1 WNW 2 7 1 4 1029.3 1029.5 0.0
30/08:51pm 3.8 2.4 3.5 98 0.1 CALM 0 0 0 0 1029.2 1029.4 0.0
30/08:30pm 3.9 1.4 3.5 97 0.2 WNW 6 7 3 4 1029.2 1029.4 0.0
30/08:00pm 4.4 3.0 3.7 95 0.3 CALM 0 0 0 0 1028.9 1029.1 0.0
30/07:30pm 5.6 3.1 4.9 95 0.3 NNW 7 7 4 4 1028.8 1029.0 0.0
30/07:00pm 5.7 4.5 4.7 93 0.4 CALM 0 0 0 0 1028.6 1028.8 0.0
30/06:30pm 6.5 5.4 5.0 90 0.7 CALM 0 0 0 0 1028.5 1028.7 0.0
30/06:00pm 7.2 6.2 5.5 89 0.8 CALM 0 6 0 3 1028.2 1028.5 0.0
30/05:30pm 7.9 6.4 5.0 82 1.3 NNE 2 6 1 3 1028.1 1028.4 0.0
30/05:00pm 9.2 8.0 4.8 74 2.0 CALM 0 6 0 3 1027.8 1028.1 0.0
30/04:30pm 10.1 8.6 5.1 71 2.3 NNE 2 7 1 4 1027.6 1027.9 0.0
30/04:00pm 11.5 10.5 5.8 68 2.6 CALM 0 0 0 0 1027.5 1027.8 0.0
30/03:30pm 10.5 9.4 5.3 70 2.4 CALM 0 0 0 0 1027.3 1027.6 0.0
30/03:00pm 10.5 9.5 5.7 72 2.2 CALM 0 6 0 3 1027.2 1027.5 0.0
30/02:30pm 10.5 9.4 5.1 69 2.5 CALM 0 0 0 0 1027.4 1027.7 0.0
30/02:00pm 10.3 9.3 5.7 73 2.1 CALM 0 7 0 4 1027.5 1027.8 0.0
30/01:30pm 9.8 8.3 5.2 73 2.1 WSW 2 7 1 4 1027.6 1027.9 0.0
30/01:00pm 9.5 8.6 6.0 79 1.6 CALM 0 0 0 0 1027.8 1028.1 0.0
30/12:30pm 8.6 8.0 7.5 93 0.5 CALM 0 0 0 0 1028.1 1028.4 0.0
30/12:00pm 7.2 6.5 7.1 99 0.0 CALM 0 0 0 0 1028.7 1028.9 0.0
30/11:30am 6.4 5.6 6.3 99 0.0 CALM 0 0 0 0 1029.3 1029.5 0.0
30/11:23am 6.4 5.6 6.3 99 0.0 CALM 0 0 0 0 1029.4 1029.6 0.0
30/11:00am 5.5 4.1 5.4 99 0.0 ESE 2 6 1 3 1029.6 1029.8 0.0
30/10:30am 4.6 3.0 4.5 99 0.0 SSE 2 7 1 4 1029.8 1030.0 0.0
30/10:00am 3.9 2.2 3.8 99 0.0 SSW 2 9 1 5 1029.8 1030.0 0.0
30/09:30am 3.5 2.1 3.4 99 0.0 CALM 0 0 0 0 1029.6 1029.8 0.0
30/09:00am 3.2 1.7 3.1 99 0.0 CALM 0 0 0 0 1029.5 1029.7 0.2
30/08:30am 2.7 1.1 2.6 99 0.0 CALM 0 0 0 0 1029.2 1029.4 0.2
30/08:26am 2.8 1.2 2.7 99 0.0 CALM 0 0 0 0 1029.2 1029.4 0.2
30/08:00am 2.4 0.8 2.3 99 0.0 CALM 0 0 0 0 1028.8 1029.0 0.2
30/07:57am 2.3 0.7 2.2 99 0.0 CALM 0 0 0 0 1028.9 1029.1 0.2
30/07:30am 2.1 0.4 2.0 99 0.0 CALM 0 0 0 0 1028.7 1028.9 0.2
30/07:00am 1.8 0.1 1.7 99 0.0 CALM 0 0 0 0 1028.6 1028.8 0.2
30/06:30am 1.7 0.0 1.6 99 0.0 CALM 0 0 0 0 1028.5 1028.7 0.0
30/06:00am 1.7 0.0 1.6 99 0.0 CALM 0 0 0 0 1028.6 1028.8 0.0
30/05:30am 1.7 0.0 1.6 99 0.0 CALM 0 6 0 3 1028.2 1028.5 0.0
30/05:15am 1.9 0.2 1.8 99 0.0 CALM 0 0 0 0 1028.1 1028.4 0.0
30/05:00am 1.9 0.2 1.8 99 0.0 CALM 0 6 0 3 1028.2 1028.5 0.0
30/04:51am 2.0 0.3 1.9 99 0.0 CALM 0 0 0 0 1028.1 1028.4 0.0
30/04:40am 2.1 0.0 2.0 99 0.0 SSW 2 9 1 5 1028.2 1028.5 0.0
30/04:30am 2.0 -1.0 1.9 99 0.0 S 7 9 4 5 1028.1 1028.4 0.0
30/04:16am 1.9 0.2 1.8 99 0.0 CALM 0 7 0 4 1028.2 1028.5 0.0
30/04:00am 1.8 0.1 1.7 99 0.0 CALM 0 0 0 0 1028.2 1028.5 0.0
30/03:30am 1.6 -0.2 1.5 99 0.0 CALM 0 0 0 0 1028.5 1028.7 0.0
30/03:00am 1.9 0.2 1.8 99 0.0 CALM 0 0 0 0 1028.7 1028.9 0.0
30/02:30am 1.7 0.0 1.6 99 0.0 CALM 0 0 0 0 1028.3 1028.6 0.0
30/02:25am 1.7 0.0 1.6 99 0.0 CALM 0 0 0 0 1028.5 1028.7 0.0
30/02:00am 1.2 -1.4 1.1 99 0.0 S 4 7 2 4 1028.6 1028.8 0.0
30/01:48am 1.9 -0.2 1.8 99 0.0 SSE 2 7 1 4 1028.7 1028.9 0.0
30/01:40am 1.9 -0.2 1.8 99 0.0 S 2 7 1 4 1028.5 1028.7 0.0
30/01:30am 1.8 0.1 1.7 99 0.0 CALM 0 0 0 0 1028.7 1028.9 0.0
30/01:00am 1.2 -0.6 1.1 99 0.0 CALM 0 0 0 0 1028.9 1029.1 0.0
30/12:42am 1.0 -0.8 0.9 99 0.0 CALM 0 0 0 0 1028.9 1029.1 0.0
30/12:30am 0.8 -1.1 0.7 99 0.0 CALM 0 0 0 0 1029.0 1029.2 0.0
30/12:00am 0.4 -1.5 0.3 99 0.0 CALM 0 0 0 0 1029.2 1029.4 0.0
 
Date/Time
EST
Temp
°C
App
Temp
°C
Dew
Point
Rel
Hum
%
Delta-T
°C
Wind Press
QNH
hPa
Press
MSL
hPa
Rain
since 9 am
mm
Dir
 
Spd
km/h
Gust
km/h
Spd
kts
Gust
kts
29/11:40pm 0.7 -1.2 0.6 99 0.0 CALM 0 0 0 0 1029.2 1029.4 0.0
29/11:35pm 0.6 -1.3 0.5 99 0.0 CALM 0 0 0 0 1029.3 1029.5 0.0
29/11:30pm 0.6 -1.3 0.5 99 0.0 CALM 0 0 0 0 1029.3 1029.5 0.0
29/11:00pm 1.4 -0.4 1.3 99 0.0 CALM 0 0 0 0 1029.4 1029.6 0.0
29/10:49pm 1.2 -0.6 1.1 99 0.0 CALM 0 0 0 0 1029.4 1029.6 0.0
29/10:40pm 1.6 -0.2 1.5 99 0.0 CALM 0 0 0 0 1029.4 1029.6 0.0
29/10:35pm 1.8 0.1 1.7 99 0.0 CALM 0 0 0 0 1029.4 1029.6 0.0
29/10:30pm 1.7 0.0 1.6 99 0.0 CALM 0 0 0 0 1029.4 1029.6 0.0
29/10:00pm 1.8 0.1 1.7 99 0.0 CALM 0 0 0 0 1029.4 1029.6 0.0
29/09:38pm 1.7 0.0 1.6 99 0.0 CALM 0 0 0 0 1029.5 1029.7 0.0
29/09:30pm 2.0 0.3 1.9 99 0.0 CALM 0 0 0 0 1029.5 1029.7 0.0
29/09:21pm 1.7 0.0 1.6 99 0.0 CALM 0 0 0 0 1029.5 1029.7 0.0
29/09:00pm 2.3 0.7 2.2 99 0.0 CALM 0 0 0 0 1029.7 1029.9 0.0
29/08:42pm 3.3 1.8 3.2 99 0.0 CALM 0 0 0 0 1029.7 1029.9 0.0
29/08:33pm 2.8 1.2 2.7 99 0.0 CALM 0 0 0 0 1029.8 1030.0 0.0
29/08:30pm 2.6 1.0 2.5 99 0.0 CALM 0 0 0 0 1029.8 1030.0 0.0
29/08:22pm 3.2 1.7 3.1 99 0.0 CALM 0 0 0 0 1029.8 1030.0 0.0
29/08:00pm 3.7 2.3 3.6 99 0.0 CALM 0 0 0 0 1029.8 1030.0 0.0
29/07:47pm 4.1 2.8 4.0 99 0.0 CALM 0 0 0 0 1029.8 1030.0 0.0
29/07:30pm 4.2 2.9 4.1 99 0.0 CALM 0 0 0 0 1029.9 1030.1 0.0
29/07:00pm 4.1 2.7 3.7 97 0.2 CALM 0 0 0 0 1029.9 1030.1 0.0
29/06:30pm 5.7 4.6 5.1 96 0.3 CALM 0 0 0 0 1030.1 1030.3 0.0
29/06:00pm 7.0 6.0 5.8 92 0.5 CALM 0 0 0 0 1030.1 1030.3 0.0
29/05:30pm 7.5 6.0 5.1 85 1.1 W 2 7 1 4 1030.1 1030.3 0.0
29/05:00pm 10.5 8.3 6.3 75 2.0 W 7 7 4 4 1030.1 1030.3 0.0
29/04:30pm 11.8 11.0 6.5 70 2.5 CALM 0 0 0 0 1030.1 1030.3 0.0
29/04:00pm 11.9 9.7 6.0 67 2.8 NW 7 11 4 6 1030.3 1030.5 0.0
29/03:30pm 12.7 11.9 6.7 67 2.9 CALM 0 6 0 3 1030.4 1030.6 0.0

Other Formats:

Comma delimited format used in spreadsheet applications
http://www.bom.gov.au/fwo/IDV60801/IDV60801.94875.axf

JavaScript Object Notation format (JSON) in row-major order
http://www.bom.gov.au/fwo/IDV60801/IDV60801.94875.json